Disclaimer

Please do not use the information listed here in-flight or in-navigation, as they are not provided to us by the airports but are provided by volunteers, so they might be outdated.

Search


Regions


Airport information page

Radio informations:
HASSI MESSAOUD T - 118.1 MHz
HASSI MESSAOUD R - 8894 MHz

Airport informations:
Latitude: 31° 40' 22.70" N
Longitude: 006° 08' 25.60" E
Elevation: 463 feet - 141 meters
Operating hours: Remarks
Operating agency: Civil government, landing fees and diplomatic clearance may be required
Timezone: UTC+1 - Dates notified by NOTAM
Fuel: Jet A1, without icing nhibitor.

Runway information:
18/36 - 9843 x 148 feet< - >3000 x 45 meters

Recent METARs:
DAUH 131830Z 06007KT 8000 NSC 20/11 Q1020
DAUH 131900Z 06007KT 8000 NSC 20/11 Q1020
DAUH 131930Z 04007KT CAVOK 19/11 Q1020

Airport on the map: